Alton, Maine
Current Conditions -  °F | °C
As of 6:53 PM on Tuesday 25 Nov 2014 (Local Time) from KBGR Reporting Station
Scattered Clouds Scattered Clouds  
Wind Chill: 47°   Ceiling: Unl
Heat Index: 49°   Visibility: 10mi
Dew Point: 29°   Wind: 5mph
Humidity: 46%   Direction: 270°W
Pressure: 29.91"   Gusts: NA
Location:  45.0236°N, 68.7394°W
Report Text: KBGR 252353Z 27004KT 10SM FEW120 SCT250 09/M02 A2991 RMK AO2 SLP129 T00941017 10161 20094 53039
Loading
Personal Weather Stations






























Interactive Weather Map New forecast layout! Learn more

10-Day Weather Forecast

Advertisements
Track Severe Weather on mobile